sensor_id;sensor_type;location;lat;lon;timestamp;temperature;humidity
6375;DHT22;35400;45.472;-122.822;2023-06-04T00:02:23;26.60;54.70
6375;DHT22;35400;45.472;-122.822;2023-06-04T00:04:50;26.50;55.10
6375;DHT22;35400;45.472;-122.822;2023-06-04T00:07:17;26.40;53.90
6375;DHT22;35400;45.472;-122.822;2023-06-04T00:09:44;26.40;54.40
6375;DHT22;35400;45.472;-122.822;2023-06-04T00:12:13;26.30;54.80
6375;DHT22;35400;45.472;-122.822;2023-06-04T00:14:40;26.30;54.20
6375;DHT22;35400;45.472;-122.822;2023-06-04T00:17:09;26.20;54.80
6375;DHT22;35400;45.472;-122.822;2023-06-04T00:19:37;26.20;55.40
6375;DHT22;35400;45.472;-122.822;2023-06-04T00:22:05;26.20;55.00
6375;DHT22;35400;45.472;-122.822;2023-06-04T00:24:32;26.20;54.70
6375;DHT22;35400;45.472;-122.822;2023-06-04T00:26:59;26.10;55.30
6375;DHT22;35400;45.472;-122.822;2023-06-04T00:29:26;26.00;55.30
6375;DHT22;35400;45.472;-122.822;2023-06-04T00:31:53;25.90;55.00
6375;DHT22;35400;45.472;-122.822;2023-06-04T00:34:20;25.90;55.80
6375;DHT22;35400;45.472;-122.822;2023-06-04T00:36:47;25.90;56.20
6375;DHT22;35400;45.472;-122.822;2023-06-04T00:39:14;25.80;56.40
6375;DHT22;35400;45.472;-122.822;2023-06-04T00:41:41;25.70;56.40
6375;DHT22;35400;45.472;-122.822;2023-06-04T00:44:08;25.70;56.50
6375;DHT22;35400;45.472;-122.822;2023-06-04T00:46:35;25.70;56.90
6375;DHT22;35400;45.472;-122.822;2023-06-04T00:49:05;25.60;57.70
6375;DHT22;35400;45.472;-122.822;2023-06-04T00:51:33;25.50;57.90
6375;DHT22;35400;45.472;-122.822;2023-06-04T00:54:02;25.40;57.90
6375;DHT22;35400;45.472;-122.822;2023-06-04T00:56:36;25.40;58.80
6375;DHT22;35400;45.472;-122.822;2023-06-04T00:59:05;25.30;58.80
6375;DHT22;35400;45.472;-122.822;2023-06-04T01:01:42;25.30;59.20
6375;DHT22;35400;45.472;-122.822;2023-06-04T01:04:36;25.20;59.60
6375;DHT22;35400;45.472;-122.822;2023-06-04T01:07:05;25.20;60.00
6375;DHT22;35400;45.472;-122.822;2023-06-04T01:09:34;25.10;60.70
6375;DHT22;35400;45.472;-122.822;2023-06-04T01:12:08;25.00;61.70
6375;DHT22;35400;45.472;-122.822;2023-06-04T01:14:35;25.00;63.50
6375;DHT22;35400;45.472;-122.822;2023-06-04T01:17:53;25.00;63.60
6375;DHT22;35400;45.472;-122.822;2023-06-04T01:20:22;24.90;64.20
6375;DHT22;35400;45.472;-122.822;2023-06-04T01:25:38;24.80;64.70
6375;DHT22;35400;45.472;-122.822;2023-06-04T01:28:11;24.80;65.60
6375;DHT22;35400;45.472;-122.822;2023-06-04T01:30:40;24.70;65.70
6375;DHT22;35400;45.472;-122.822;2023-06-04T01:33:14;24.70;66.00
6375;DHT22;35400;45.472;-122.822;2023-06-04T01:35:42;24.60;66.40
6375;DHT22;35400;45.472;-122.822;2023-06-04T01:38:09;24.60;66.40
6375;DHT22;35400;45.472;-122.822;2023-06-04T01:40:36;24.50;66.20
6375;DHT22;35400;45.472;-122.822;2023-06-04T01:43:03;24.50;66.50
6375;DHT22;35400;45.472;-122.822;2023-06-04T01:45:30;24.40;66.40
6375;DHT22;35400;45.472;-122.822;2023-06-04T01:47:57;24.30;66.60
6375;DHT22;35400;45.472;-122.822;2023-06-04T01:50:24;24.30;67.20
6375;DHT22;35400;45.472;-122.822;2023-06-04T01:52:51;24.20;67.00
6375;DHT22;35400;45.472;-122.822;2023-06-04T01:55:18;24.20;67.30
6375;DHT22;35400;45.472;-122.822;2023-06-04T01:57:48;24.10;67.00
6375;DHT22;35400;45.472;-122.822;2023-06-04T02:00:16;24.00;66.30
6375;DHT22;35400;45.472;-122.822;2023-06-04T02:02:45;23.90;66.30
6375;DHT22;35400;45.472;-122.822;2023-06-04T02:05:15;23.80;65.90
6375;DHT22;35400;45.472;-122.822;2023-06-04T02:07:43;23.70;65.60
6375;DHT22;35400;45.472;-122.822;2023-06-04T02:10:15;23.70;65.70
6375;DHT22;35400;45.472;-122.822;2023-06-04T02:13:02;23.60;65.70
6375;DHT22;35400;45.472;-122.822;2023-06-04T02:15:31;23.50;66.30
6375;DHT22;35400;45.472;-122.822;2023-06-04T02:18:10;23.40;66.40
6375;DHT22;35400;45.472;-122.822;2023-06-04T02:20:43;23.30;65.50
6375;DHT22;35400;45.472;-122.822;2023-06-04T02:23:11;23.20;65.60
6375;DHT22;35400;45.472;-122.822;2023-06-04T02:25:38;23.10;65.60
6375;DHT22;35400;45.472;-122.822;2023-06-04T02:28:05;23.00;66.50
6375;DHT22;35400;45.472;-122.822;2023-06-04T02:30:33;23.00;67.10
6375;DHT22;35400;45.472;-122.822;2023-06-04T02:32:59;22.90;67.50
6375;DHT22;35400;45.472;-122.822;2023-06-04T02:35:30;22.80;68.00
6375;DHT22;35400;45.472;-122.822;2023-06-04T02:37:58;22.70;68.30
6375;DHT22;35400;45.472;-122.822;2023-06-04T02:40:27;22.60;68.40
6375;DHT22;35400;45.472;-122.822;2023-06-04T02:42:55;22.50;68.70
6375;DHT22;35400;45.472;-122.822;2023-06-04T02:45:22;22.50;69.20
6375;DHT22;35400;45.472;-122.822;2023-06-04T02:47:49;22.30;69.40
6375;DHT22;35400;45.472;-122.822;2023-06-04T02:50:17;22.20;69.40
6375;DHT22;35400;45.472;-122.822;2023-06-04T02:52:44;22.20;69.60
6375;DHT22;35400;45.472;-122.822;2023-06-04T02:55:11;22.10;69.90
6375;DHT22;35400;45.472;-122.822;2023-06-04T02:57:42;22.00;70.00
6375;DHT22;35400;45.472;-122.822;2023-06-04T03:00:13;21.90;70.10
6375;DHT22;35400;45.472;-122.822;2023-06-04T03:02:45;21.80;69.20
6375;DHT22;35400;45.472;-122.822;2023-06-04T03:05:15;21.70;69.10
6375;DHT22;35400;45.472;-122.822;2023-06-04T03:07:45;21.60;69.40
6375;DHT22;35400;45.472;-122.822;2023-06-04T03:10:13;21.40;69.90
6375;DHT22;35400;45.472;-122.822;2023-06-04T03:12:41;21.30;70.20
6375;DHT22;35400;45.472;-122.822;2023-06-04T03:15:08;21.20;70.50
6375;DHT22;35400;45.472;-122.822;2023-06-04T03:17:36;21.10;70.90
6375;DHT22;35400;45.472;-122.822;2023-06-04T03:20:03;21.00;71.60
6375;DHT22;35400;45.472;-122.822;2023-06-04T03:22:31;21.00;72.00
6375;DHT22;35400;45.472;-122.822;2023-06-04T03:25:01;20.90;72.60
6375;DHT22;35400;45.472;-122.822;2023-06-04T03:27:28;20.80;73.00
6375;DHT22;35400;45.472;-122.822;2023-06-04T03:29:54;20.70;73.50
6375;DHT22;35400;45.472;-122.822;2023-06-04T03:32:22;20.60;73.80
6375;DHT22;35400;45.472;-122.822;2023-06-04T03:34:48;20.50;75.20
6375;DHT22;35400;45.472;-122.822;2023-06-04T03:37:18;20.40;75.20
6375;DHT22;35400;45.472;-122.822;2023-06-04T03:39:44;20.30;75.30
6375;DHT22;35400;45.472;-122.822;2023-06-04T03:42:15;20.20;75.50
6375;DHT22;35400;45.472;-122.822;2023-06-04T03:44:41;20.00;75.50
6375;DHT22;35400;45.472;-122.822;2023-06-04T03:47:08;19.90;75.90
6375;DHT22;35400;45.472;-122.822;2023-06-04T03:49:35;19.80;76.40
6375;DHT22;35400;45.472;-122.822;2023-06-04T03:52:02;19.70;77.10
6375;DHT22;35400;45.472;-122.822;2023-06-04T03:54:29;19.50;77.50
6375;DHT22;35400;45.472;-122.822;2023-06-04T03:56:57;19.40;77.80
6375;DHT22;35400;45.472;-122.822;2023-06-04T03:59:23;19.30;78.70
6375;DHT22;35400;45.472;-122.822;2023-06-04T04:01:51;19.20;80.40
6375;DHT22;35400;45.472;-122.822;2023-06-04T04:04:18;19.10;80.60
6375;DHT22;35400;45.472;-122.822;2023-06-04T04:06:45;19.00;81.00
6375;DHT22;35400;45.472;-122.822;2023-06-04T04:09:12;18.90;81.50
6375;DHT22;35400;45.472;-122.822;2023-06-04T04:11:39;18.70;81.90
6375;DHT22;35400;45.472;-122.822;2023-06-04T04:14:06;18.60;82.30
6375;DHT22;35400;45.472;-122.822;2023-06-04T04:16:33;18.50;82.90
6375;DHT22;35400;45.472;-122.822;2023-06-04T04:19:02;18.40;83.10
6375;DHT22;35400;45.472;-122.822;2023-06-04T04:21:29;18.20;83.40
6375;DHT22;35400;45.472;-122.822;2023-06-04T04:23:56;18.10;83.60
6375;DHT22;35400;45.472;-122.822;2023-06-04T04:26:23;18.00;84.10
6375;DHT22;35400;45.472;-122.822;2023-06-04T04:28:54;17.90;84.20
6375;DHT22;35400;45.472;-122.822;2023-06-04T04:31:30;17.80;84.40
6375;DHT22;35400;45.472;-122.822;2023-06-04T04:33:57;17.70;84.40
6375;DHT22;35400;45.472;-122.822;2023-06-04T04:36:24;17.60;84.70
6375;DHT22;35400;45.472;-122.822;2023-06-04T04:38:52;17.50;85.10
6375;DHT22;35400;45.472;-122.822;2023-06-04T04:41:31;17.40;85.50
6375;DHT22;35400;45.472;-122.822;2023-06-04T04:44:05;17.30;85.80
6375;DHT22;35400;45.472;-122.822;2023-06-04T04:46:33;17.20;85.90
6375;DHT22;35400;45.472;-122.822;2023-06-04T04:49:00;17.10;86.30
6375;DHT22;35400;45.472;-122.822;2023-06-04T04:51:29;17.00;86.40
6375;DHT22;35400;45.472;-122.822;2023-06-04T04:53:58;16.90;86.80
6375;DHT22;35400;45.472;-122.822;2023-06-04T04:56:33;16.80;87.20
6375;DHT22;35400;45.472;-122.822;2023-06-04T04:59:02;16.70;87.30
6375;DHT22;35400;45.472;-122.822;2023-06-04T05:01:28;16.60;87.40
6375;DHT22;35400;45.472;-122.822;2023-06-04T05:03:56;16.60;87.70
6375;DHT22;35400;45.472;-122.822;2023-06-04T05:06:23;16.50;87.90
6375;DHT22;35400;45.472;-122.822;2023-06-04T05:08:50;16.40;88.00
6375;DHT22;35400;45.472;-122.822;2023-06-04T05:11:18;16.30;88.20
6375;DHT22;35400;45.472;-122.822;2023-06-04T05:13:46;16.20;88.40
6375;DHT22;35400;45.472;-122.822;2023-06-04T05:16:13;16.20;88.50
6375;DHT22;35400;45.472;-122.822;2023-06-04T05:18:42;16.10;88.70
6375;DHT22;35400;45.472;-122.822;2023-06-04T05:21:14;16.00;89.00
6375;DHT22;35400;45.472;-122.822;2023-06-04T05:23:47;15.90;89.00
6375;DHT22;35400;45.472;-122.822;2023-06-04T05:26:16;15.90;89.30
6375;DHT22;35400;45.472;-122.822;2023-06-04T05:28:44;15.80;89.20
6375;DHT22;35400;45.472;-122.822;2023-06-04T05:31:13;15.70;89.40
6375;DHT22;35400;45.472;-122.822;2023-06-04T05:33:42;15.60;89.50
6375;DHT22;35400;45.472;-122.822;2023-06-04T05:36:13;15.60;89.90
6375;DHT22;35400;45.472;-122.822;2023-06-04T05:38:48;15.50;90.00
6375;DHT22;35400;45.472;-122.822;2023-06-04T05:41:26;15.40;90.10
6375;DHT22;35400;45.472;-122.822;2023-06-04T05:43:54;15.30;90.10
6375;DHT22;35400;45.472;-122.822;2023-06-04T05:46:21;15.30;90.20
6375;DHT22;35400;45.472;-122.822;2023-06-04T05:48:48;15.20;90.30
6375;DHT22;35400;45.472;-122.822;2023-06-04T05:51:18;15.10;90.30
6375;DHT22;35400;45.472;-122.822;2023-06-04T05:53:46;15.10;90.30
6375;DHT22;35400;45.472;-122.822;2023-06-04T05:56:13;15.00;90.40
6375;DHT22;35400;45.472;-122.822;2023-06-04T05:58:41;14.90;90.40
6375;DHT22;35400;45.472;-122.822;2023-06-04T06:01:08;14.90;90.50
6375;DHT22;35400;45.472;-122.822;2023-06-04T06:03:35;14.80;90.60
6375;DHT22;35400;45.472;-122.822;2023-06-04T06:06:03;14.80;90.70
6375;DHT22;35400;45.472;-122.822;2023-06-04T06:08:31;14.70;90.70
6375;DHT22;35400;45.472;-122.822;2023-06-04T06:10:58;14.70;90.80
6375;DHT22;35400;45.472;-122.822;2023-06-04T06:13:25;14.60;90.90
6375;DHT22;35400;45.472;-122.822;2023-06-04T06:15:52;14.50;90.80
6375;DHT22;35400;45.472;-122.822;2023-06-04T06:18:22;14.50;91.00
6375;DHT22;35400;45.472;-122.822;2023-06-04T06:20:49;14.40;91.10
6375;DHT22;35400;45.472;-122.822;2023-06-04T06:23:15;14.40;91.30
6375;DHT22;35400;45.472;-122.822;2023-06-04T06:25:45;14.30;91.30
6375;DHT22;35400;45.472;-122.822;2023-06-04T06:28:18;14.30;91.40
6375;DHT22;35400;45.472;-122.822;2023-06-04T06:30:46;14.20;91.60
6375;DHT22;35400;45.472;-122.822;2023-06-04T06:33:14;14.20;91.80
6375;DHT22;35400;45.472;-122.822;2023-06-04T06:35:41;14.10;91.80
6375;DHT22;35400;45.472;-122.822;2023-06-04T06:38:08;14.10;92.10
6375;DHT22;35400;45.472;-122.822;2023-06-04T06:40:34;14.00;92.20
6375;DHT22;35400;45.472;-122.822;2023-06-04T06:43:01;14.00;92.40
6375;DHT22;35400;45.472;-122.822;2023-06-04T06:45:28;14.00;92.60
6375;DHT22;35400;45.472;-122.822;2023-06-04T06:50:22;13.90;92.60
6375;DHT22;35400;45.472;-122.822;2023-06-04T06:52:49;13.80;92.90
6375;DHT22;35400;45.472;-122.822;2023-06-04T06:55:16;13.80;93.00
6375;DHT22;35400;45.472;-122.822;2023-06-04T06:57:43;13.70;93.20
6375;DHT22;35400;45.472;-122.822;2023-06-04T07:00:11;13.70;93.30
6375;DHT22;35400;45.472;-122.822;2023-06-04T07:02:38;13.70;93.40
6375;DHT22;35400;45.472;-122.822;2023-06-04T07:05:05;13.60;93.40
6375;DHT22;35400;45.472;-122.822;2023-06-04T07:07:32;13.60;93.40
6375;DHT22;35400;45.472;-122.822;2023-06-04T07:09:59;13.50;93.40
6375;DHT22;35400;45.472;-122.822;2023-06-04T07:12:26;13.50;93.30
6375;DHT22;35400;45.472;-122.822;2023-06-04T07:14:52;13.50;93.30
6375;DHT22;35400;45.472;-122.822;2023-06-04T07:17:19;13.40;93.30
6375;DHT22;35400;45.472;-122.822;2023-06-04T07:19:46;13.40;93.40
6375;DHT22;35400;45.472;-122.822;2023-06-04T07:22:13;13.30;93.40
6375;DHT22;35400;45.472;-122.822;2023-06-04T07:24:42;13.30;93.40
6375;DHT22;35400;45.472;-122.822;2023-06-04T07:27:15;13.20;93.50
6375;DHT22;35400;45.472;-122.822;2023-06-04T07:29:45;13.20;93.60
6375;DHT22;35400;45.472;-122.822;2023-06-04T07:32:12;13.10;93.80
6375;DHT22;35400;45.472;-122.822;2023-06-04T07:34:39;13.10;93.90
6375;DHT22;35400;45.472;-122.822;2023-06-04T07:37:06;13.00;93.90
6375;DHT22;35400;45.472;-122.822;2023-06-04T07:39:35;13.00;94.00
6375;DHT22;35400;45.472;-122.822;2023-06-04T07:42:03;12.90;94.10
6375;DHT22;35400;45.472;-122.822;2023-06-04T07:44:31;12.90;94.10
6375;DHT22;35400;45.472;-122.822;2023-06-04T07:46:58;12.90;94.00
6375;DHT22;35400;45.472;-122.822;2023-06-04T07:49:25;12.80;94.00
6375;DHT22;35400;45.472;-122.822;2023-06-04T07:51:52;12.80;93.90
6375;DHT22;35400;45.472;-122.822;2023-06-04T07:54:19;12.80;93.80
6375;DHT22;35400;45.472;-122.822;2023-06-04T07:56:46;12.70;93.70
6375;DHT22;35400;45.472;-122.822;2023-06-04T07:59:13;12.70;93.70
6375;DHT22;35400;45.472;-122.822;2023-06-04T08:01:40;12.70;93.70
6375;DHT22;35400;45.472;-122.822;2023-06-04T08:04:07;12.60;93.60
6375;DHT22;35400;45.472;-122.822;2023-06-04T08:06:34;12.60;93.60
6375;DHT22;35400;45.472;-122.822;2023-06-04T08:09:01;12.60;93.60
6375;DHT22;35400;45.472;-122.822;2023-06-04T08:11:28;12.50;93.60
6375;DHT22;35400;45.472;-122.822;2023-06-04T08:13:55;12.50;93.70
6375;DHT22;35400;45.472;-122.822;2023-06-04T08:16:22;12.40;93.70
6375;DHT22;35400;45.472;-122.822;2023-06-04T08:18:49;12.40;93.60
6375;DHT22;35400;45.472;-122.822;2023-06-04T08:21:25;12.30;93.60
6375;DHT22;35400;45.472;-122.822;2023-06-04T08:23:53;12.30;93.70
6375;DHT22;35400;45.472;-122.822;2023-06-04T08:26:19;12.30;94.10
6375;DHT22;35400;45.472;-122.822;2023-06-04T08:28:50;12.20;93.60
6375;DHT22;35400;45.472;-122.822;2023-06-04T08:31:17;12.20;93.70
6375;DHT22;35400;45.472;-122.822;2023-06-04T08:33:47;12.10;94.00
6375;DHT22;35400;45.472;-122.822;2023-06-04T08:36:14;12.10;93.80
6375;DHT22;35400;45.472;-122.822;2023-06-04T08:38:42;12.00;93.80
6375;DHT22;35400;45.472;-122.822;2023-06-04T08:41:30;12.00;93.90
6375;DHT22;35400;45.472;-122.822;2023-06-04T08:43:59;11.90;93.90
6375;DHT22;35400;45.472;-122.822;2023-06-04T08:46:28;11.90;94.00
6375;DHT22;35400;45.472;-122.822;2023-06-04T08:49:00;11.90;94.10
6375;DHT22;35400;45.472;-122.822;2023-06-04T08:51:34;11.80;94.10
6375;DHT22;35400;45.472;-122.822;2023-06-04T08:54:07;11.80;94.20
6375;DHT22;35400;45.472;-122.822;2023-06-04T08:56:35;11.80;94.30
6375;DHT22;35400;45.472;-122.822;2023-06-04T08:59:06;11.70;94.40
6375;DHT22;35400;45.472;-122.822;2023-06-04T09:01:34;11.70;94.60
6375;DHT22;35400;45.472;-122.822;2023-06-04T09:04:06;11.60;94.50
6375;DHT22;35400;45.472;-122.822;2023-06-04T09:06:37;11.60;94.70
6375;DHT22;35400;45.472;-122.822;2023-06-04T09:09:05;11.50;94.70
6375;DHT22;35400;45.472;-122.822;2023-06-04T09:11:44;11.50;94.70
6375;DHT22;35400;45.472;-122.822;2023-06-04T09:14:14;11.50;94.70
6375;DHT22;35400;45.472;-122.822;2023-06-04T09:16:46;11.50;94.70
6375;DHT22;35400;45.472;-122.822;2023-06-04T09:19:14;11.50;94.70
6375;DHT22;35400;45.472;-122.822;2023-06-04T09:21:55;11.50;94.70
6375;DHT22;35400;45.472;-122.822;2023-06-04T09:24:24;11.40;94.70
6375;DHT22;35400;45.472;-122.822;2023-06-04T09:26:52;11.40;94.90
6375;DHT22;35400;45.472;-122.822;2023-06-04T09:29:19;11.40;95.00
6375;DHT22;35400;45.472;-122.822;2023-06-04T09:31:47;11.40;95.20
6375;DHT22;35400;45.472;-122.822;2023-06-04T09:34:29;11.30;95.20
6375;DHT22;35400;45.472;-122.822;2023-06-04T09:36:56;11.30;95.30
6375;DHT22;35400;45.472;-122.822;2023-06-04T09:39:23;11.20;95.40
6375;DHT22;35400;45.472;-122.822;2023-06-04T09:42:00;11.20;95.60
6375;DHT22;35400;45.472;-122.822;2023-06-04T09:44:30;11.20;95.70
6375;DHT22;35400;45.472;-122.822;2023-06-04T09:46:57;11.10;95.70
6375;DHT22;35400;45.472;-122.822;2023-06-04T09:49:25;11.10;95.80
6375;DHT22;35400;45.472;-122.822;2023-06-04T09:51:52;11.10;95.90
6375;DHT22;35400;45.472;-122.822;2023-06-04T09:54:19;11.10;96.00
6375;DHT22;35400;45.472;-122.822;2023-06-04T09:56:46;11.00;96.10
6375;DHT22;35400;45.472;-122.822;2023-06-04T09:59:13;11.00;96.20
6375;DHT22;35400;45.472;-122.822;2023-06-04T10:01:41;10.90;96.20
6375;DHT22;35400;45.472;-122.822;2023-06-04T10:04:09;10.90;96.40
6375;DHT22;35400;45.472;-122.822;2023-06-04T10:06:39;10.90;96.60
6375;DHT22;35400;45.472;-122.822;2023-06-04T10:09:08;10.90;96.70
6375;DHT22;35400;45.472;-122.822;2023-06-04T10:11:47;10.80;96.90
6375;DHT22;35400;45.472;-122.822;2023-06-04T10:14:23;10.80;97.00
6375;DHT22;35400;45.472;-122.822;2023-06-04T10:16:52;10.70;97.20
6375;DHT22;35400;45.472;-122.822;2023-06-04T10:19:19;10.70;97.40
6375;DHT22;35400;45.472;-122.822;2023-06-04T10:21:47;10.70;97.70
6375;DHT22;35400;45.472;-122.822;2023-06-04T10:24:14;10.70;97.80
6375;DHT22;35400;45.472;-122.822;2023-06-04T10:26:42;10.60;97.90
6375;DHT22;35400;45.472;-122.822;2023-06-04T10:29:10;10.60;98.10
6375;DHT22;35400;45.472;-122.822;2023-06-04T10:31:38;10.50;98.20
6375;DHT22;35400;45.472;-122.822;2023-06-04T10:34:04;10.50;98.30
6375;DHT22;35400;45.472;-122.822;2023-06-04T10:36:41;10.50;98.50
6375;DHT22;35400;45.472;-122.822;2023-06-04T10:39:08;10.40;98.70
6375;DHT22;35400;45.472;-122.822;2023-06-04T10:41:36;10.40;98.90
6375;DHT22;35400;45.472;-122.822;2023-06-04T10:44:03;10.40;99.10
6375;DHT22;35400;45.472;-122.822;2023-06-04T10:46:40;10.30;99.20
6375;DHT22;35400;45.472;-122.822;2023-06-04T10:49:09;10.30;99.40
6375;DHT22;35400;45.472;-122.822;2023-06-04T10:51:41;10.20;99.50
6375;DHT22;35400;45.472;-122.822;2023-06-04T10:54:09;10.20;99.70
6375;DHT22;35400;45.472;-122.822;2023-06-04T10:56:37;10.10;99.90
6375;DHT22;35400;45.472;-122.822;2023-06-04T10:59:17;10.10;99.90
6375;DHT22;35400;45.472;-122.822;2023-06-04T11:01:45;10.10;99.90
6375;DHT22;35400;45.472;-122.822;2023-06-04T11:04:25;10.00;99.90
6375;DHT22;35400;45.472;-122.822;2023-06-04T11:07:06;10.00;99.90
6375;DHT22;35400;45.472;-122.822;2023-06-04T11:09:36;10.00;99.90
6375;DHT22;35400;45.472;-122.822;2023-06-04T11:12:05;9.90;99.90
6375;DHT22;35400;45.472;-122.822;2023-06-04T11:14:32;9.90;99.90
6375;DHT22;35400;45.472;-122.822;2023-06-04T11:17:12;9.90;99.90
6375;DHT22;35400;45.472;-122.822;2023-06-04T11:19:39;9.90;99.90
6375;DHT22;35400;45.472;-122.822;2023-06-04T11:22:07;9.80;99.90
6375;DHT22;35400;45.472;-122.822;2023-06-04T11:24:36;9.80;99.90
6375;DHT22;35400;45.472;-122.822;2023-06-04T11:27:03;9.80;99.90
6375;DHT22;35400;45.472;-122.822;2023-06-04T11:29:30;9.80;99.90
6375;DHT22;35400;45.472;-122.822;2023-06-04T11:31:57;9.70;99.90
6375;DHT22;35400;45.472;-122.822;2023-06-04T11:34:28;9.70;99.90
6375;DHT22;35400;45.472;-122.822;2023-06-04T11:36:56;9.70;99.90
6375;DHT22;35400;45.472;-122.822;2023-06-04T11:39:33;9.60;99.90
6375;DHT22;35400;45.472;-122.822;2023-06-04T11:42:04;9.60;99.90
6375;DHT22;35400;45.472;-122.822;2023-06-04T11:46:59;9.50;99.90
6375;DHT22;35400;45.472;-122.822;2023-06-04T11:49:27;9.50;99.90
6375;DHT22;35400;45.472;-122.822;2023-06-04T11:51:55;9.40;99.90
6375;DHT22;35400;45.472;-122.822;2023-06-04T11:54:22;9.40;99.90
6375;DHT22;35400;45.472;-122.822;2023-06-04T11:56:50;9.30;99.90
6375;DHT22;35400;45.472;-122.822;2023-06-04T11:59:18;9.30;99.90
6375;DHT22;35400;45.472;-122.822;2023-06-04T12:01:46;9.20;99.90
6375;DHT22;35400;45.472;-122.822;2023-06-04T12:04:19;9.10;99.90
6375;DHT22;35400;45.472;-122.822;2023-06-04T12:06:56;9.10;99.90
6375;DHT22;35400;45.472;-122.822;2023-06-04T12:09:25;9.00;99.90
6375;DHT22;35400;45.472;-122.822;2023-06-04T12:12:02;9.00;99.90
6375;DHT22;35400;45.472;-122.822;2023-06-04T12:14:30;9.00;99.90
6375;DHT22;35400;45.472;-122.822;2023-06-04T12:17:02;8.90;99.90
6375;DHT22;35400;45.472;-122.822;2023-06-04T12:19:32;8.90;99.90
6375;DHT22;35400;45.472;-122.822;2023-06-04T12:22:04;8.80;99.90
6375;DHT22;35400;45.472;-122.822;2023-06-04T12:24:32;8.80;99.90
6375;DHT22;35400;45.472;-122.822;2023-06-04T12:27:04;8.80;99.90
6375;DHT22;35400;45.472;-122.822;2023-06-04T12:29:32;8.70;99.90
6375;DHT22;35400;45.472;-122.822;2023-06-04T12:32:09;8.70;99.90
6375;DHT22;35400;45.472;-122.822;2023-06-04T12:34:40;8.70;99.90
6375;DHT22;35400;45.472;-122.822;2023-06-04T12:37:07;8.70;99.90
6375;DHT22;35400;45.472;-122.822;2023-06-04T12:39:35;8.60;99.90
6375;DHT22;35400;45.472;-122.822;2023-06-04T12:42:05;8.60;99.90
6375;DHT22;35400;45.472;-122.822;2023-06-04T12:44:34;8.60;99.90
6375;DHT22;35400;45.472;-122.822;2023-06-04T12:47:02;8.60;99.90
6375;DHT22;35400;45.472;-122.822;2023-06-04T12:49:29;8.60;99.90
6375;DHT22;35400;45.472;-122.822;2023-06-04T12:51:57;8.60;99.90
6375;DHT22;35400;45.472;-122.822;2023-06-04T12:54:23;8.60;99.90
6375;DHT22;35400;45.472;-122.822;2023-06-04T12:56:50;8.50;99.90
6375;DHT22;35400;45.472;-122.822;2023-06-04T12:59:17;8.50;99.90
6375;DHT22;35400;45.472;-122.822;2023-06-04T13:01:44;8.60;99.90
6375;DHT22;35400;45.472;-122.822;2023-06-04T13:04:11;8.60;99.90
6375;DHT22;35400;45.472;-122.822;2023-06-04T13:06:38;8.60;99.90
6375;DHT22;35400;45.472;-122.822;2023-06-04T13:09:06;8.60;99.90
6375;DHT22;35400;45.472;-122.822;2023-06-04T13:11:39;8.70;99.90
6375;DHT22;35400;45.472;-122.822;2023-06-04T13:14:07;8.70;99.90
6375;DHT22;35400;45.472;-122.822;2023-06-04T13:16:34;8.80;99.90
6375;DHT22;35400;45.472;-122.822;2023-06-04T13:19:02;8.90;99.90
6375;DHT22;35400;45.472;-122.822;2023-06-04T13:21:29;9.00;99.90
6375;DHT22;35400;45.472;-122.822;2023-06-04T13:23:56;9.10;99.90
6375;DHT22;35400;45.472;-122.822;2023-06-04T13:26:23;9.10;99.90
6375;DHT22;35400;45.472;-122.822;2023-06-04T13:28:50;9.30;99.90
6375;DHT22;35400;45.472;-122.822;2023-06-04T13:31:17;9.40;99.90
6375;DHT22;35400;45.472;-122.822;2023-06-04T13:33:44;9.50;99.90
6375;DHT22;35400;45.472;-122.822;2023-06-04T13:36:11;9.70;99.90
6375;DHT22;35400;45.472;-122.822;2023-06-04T13:38:38;9.90;99.90
6375;DHT22;35400;45.472;-122.822;2023-06-04T13:41:04;10.10;99.90
6375;DHT22;35400;45.472;-122.822;2023-06-04T13:43:31;10.30;99.90
6375;DHT22;35400;45.472;-122.822;2023-06-04T13:45:58;10.60;99.90
6375;DHT22;35400;45.472;-122.822;2023-06-04T13:48:25;11.00;99.90
6375;DHT22;35400;45.472;-122.822;2023-06-04T13:50:53;11.30;99.90
6375;DHT22;35400;45.472;-122.822;2023-06-04T13:53:19;11.60;99.90
6375;DHT22;35400;45.472;-122.822;2023-06-04T13:55:46;11.80;99.90
6375;DHT22;35400;45.472;-122.822;2023-06-04T13:58:13;11.90;99.90
6375;DHT22;35400;45.472;-122.822;2023-06-04T14:00:41;12.20;99.90
6375;DHT22;35400;45.472;-122.822;2023-06-04T14:03:08;12.50;99.90
6375;DHT22;35400;45.472;-122.822;2023-06-04T14:05:35;12.80;99.90
6375;DHT22;35400;45.472;-122.822;2023-06-04T14:08:01;12.90;99.90
6375;DHT22;35400;45.472;-122.822;2023-06-04T14:10:29;13.30;99.90
6375;DHT22;35400;45.472;-122.822;2023-06-04T14:12:56;13.40;99.90
6375;DHT22;35400;45.472;-122.822;2023-06-04T14:15:22;13.50;99.90
6375;DHT22;35400;45.472;-122.822;2023-06-04T14:17:50;13.40;99.90
6375;DHT22;35400;45.472;-122.822;2023-06-04T14:20:16;13.40;99.90
6375;DHT22;35400;45.472;-122.822;2023-06-04T14:22:43;13.30;99.90
6375;DHT22;35400;45.472;-122.822;2023-06-04T14:25:10;13.30;99.90
6375;DHT22;35400;45.472;-122.822;2023-06-04T14:27:37;13.30;99.90
6375;DHT22;35400;45.472;-122.822;2023-06-04T14:30:04;13.30;99.90
6375;DHT22;35400;45.472;-122.822;2023-06-04T14:32:32;13.30;99.90
6375;DHT22;35400;45.472;-122.822;2023-06-04T14:35:00;13.30;99.90
6375;DHT22;35400;45.472;-122.822;2023-06-04T14:37:26;13.30;99.90
6375;DHT22;35400;45.472;-122.822;2023-06-04T14:39:53;13.30;99.90
6375;DHT22;35400;45.472;-122.822;2023-06-04T14:42:20;13.20;99.90
6375;DHT22;35400;45.472;-122.822;2023-06-04T14:44:47;13.20;99.90
6375;DHT22;35400;45.472;-122.822;2023-06-04T14:47:14;13.30;99.90
6375;DHT22;35400;45.472;-122.822;2023-06-04T14:49:41;13.40;99.90
6375;DHT22;35400;45.472;-122.822;2023-06-04T14:52:08;13.60;99.90
6375;DHT22;35400;45.472;-122.822;2023-06-04T14:54:35;13.80;99.90
6375;DHT22;35400;45.472;-122.822;2023-06-04T14:57:02;14.00;99.90
6375;DHT22;35400;45.472;-122.822;2023-06-04T14:59:29;14.90;99.80
6375;DHT22;35400;45.472;-122.822;2023-06-04T15:01:56;16.20;98.20
6375;DHT22;35400;45.472;-122.822;2023-06-04T15:04:23;17.40;96.30
6375;DHT22;35400;45.472;-122.822;2023-06-04T15:06:50;18.60;94.20
6375;DHT22;35400;45.472;-122.822;2023-06-04T15:09:16;19.50;92.20
6375;DHT22;35400;45.472;-122.822;2023-06-04T15:11:43;20.20;89.50
6375;DHT22;35400;45.472;-122.822;2023-06-04T15:14:10;20.60;85.70
6375;DHT22;35400;45.472;-122.822;2023-06-04T15:16:37;21.00;83.60
6375;DHT22;35400;45.472;-122.822;2023-06-04T15:19:04;21.30;80.70
6375;DHT22;35400;45.472;-122.822;2023-06-04T15:21:31;21.30;79.30
6375;DHT22;35400;45.472;-122.822;2023-06-04T15:23:58;21.20;79.10